sensor_id;sensor_type;location;lat;lon;timestamp;temperature;humidity
971;DHT22;28939;45.540;-122.632;2022-09-09T00:01:29;26.60;52.10
971;DHT22;28939;45.540;-122.632;2022-09-09T00:04:10;26.60;52.60
971;DHT22;28939;45.540;-122.632;2022-09-09T00:06:53;26.50;53.20
971;DHT22;28939;45.540;-122.632;2022-09-09T00:09:28;26.50;53.20
971;DHT22;28939;45.540;-122.632;2022-09-09T00:12:02;26.40;52.30
971;DHT22;28939;45.540;-122.632;2022-09-09T00:14:39;26.40;52.60
971;DHT22;28939;45.540;-122.632;2022-09-09T00:17:22;26.30;53.10
971;DHT22;28939;45.540;-122.632;2022-09-09T00:20:01;26.10;53.10
971;DHT22;28939;45.540;-122.632;2022-09-09T00:22:34;25.90;53.40
971;DHT22;28939;45.540;-122.632;2022-09-09T00:25:11;25.90;53.70
971;DHT22;28939;45.540;-122.632;2022-09-09T00:27:46;25.90;53.90
971;DHT22;28939;45.540;-122.632;2022-09-09T00:30:19;25.80;54.20
971;DHT22;28939;45.540;-122.632;2022-09-09T00:32:53;25.70;54.40
971;DHT22;28939;45.540;-122.632;2022-09-09T00:35:29;25.60;54.60
971;DHT22;28939;45.540;-122.632;2022-09-09T00:38:10;25.60;54.70
971;DHT22;28939;45.540;-122.632;2022-09-09T00:40:49;25.70;53.70
971;DHT22;28939;45.540;-122.632;2022-09-09T00:43:26;25.60;55.00
971;DHT22;28939;45.540;-122.632;2022-09-09T00:46:22;25.60;55.30
971;DHT22;28939;45.540;-122.632;2022-09-09T00:49:04;25.60;55.00
971;DHT22;28939;45.540;-122.632;2022-09-09T00:51:46;25.60;54.60
971;DHT22;28939;45.540;-122.632;2022-09-09T00:54:33;25.50;54.60
971;DHT22;28939;45.540;-122.632;2022-09-09T00:57:16;25.40;54.30
971;DHT22;28939;45.540;-122.632;2022-09-09T00:59:49;25.40;53.90
971;DHT22;28939;45.540;-122.632;2022-09-09T01:02:28;25.40;54.10
971;DHT22;28939;45.540;-122.632;2022-09-09T01:05:05;25.30;53.60
971;DHT22;28939;45.540;-122.632;2022-09-09T01:07:37;25.30;53.80
971;DHT22;28939;45.540;-122.632;2022-09-09T01:10:17;25.20;54.60
971;DHT22;28939;45.540;-122.632;2022-09-09T01:12:52;25.10;54.50
971;DHT22;28939;45.540;-122.632;2022-09-09T01:15:27;25.10;55.20
971;DHT22;28939;45.540;-122.632;2022-09-09T01:18:02;25.10;54.50
971;DHT22;28939;45.540;-122.632;2022-09-09T01:20:39;25.00;55.10
971;DHT22;28939;45.540;-122.632;2022-09-09T01:23:43;25.00;55.10
971;DHT22;28939;45.540;-122.632;2022-09-09T01:26:23;25.00;55.40
971;DHT22;28939;45.540;-122.632;2022-09-09T01:28:56;24.90;54.90
971;DHT22;28939;45.540;-122.632;2022-09-09T01:31:29;24.80;54.80
971;DHT22;28939;45.540;-122.632;2022-09-09T01:34:01;24.70;55.50
971;DHT22;28939;45.540;-122.632;2022-09-09T01:36:37;24.60;55.10
971;DHT22;28939;45.540;-122.632;2022-09-09T01:39:10;24.50;55.80
971;DHT22;28939;45.540;-122.632;2022-09-09T01:41:43;24.40;56.20
971;DHT22;28939;45.540;-122.632;2022-09-09T01:44:14;24.30;56.20
971;DHT22;28939;45.540;-122.632;2022-09-09T01:46:46;24.20;56.10
971;DHT22;28939;45.540;-122.632;2022-09-09T01:49:18;24.20;56.00
971;DHT22;28939;45.540;-122.632;2022-09-09T01:51:51;24.10;56.90
971;DHT22;28939;45.540;-122.632;2022-09-09T01:54:24;24.00;56.80
971;DHT22;28939;45.540;-122.632;2022-09-09T01:57:06;23.80;57.60
971;DHT22;28939;45.540;-122.632;2022-09-09T01:59:51;23.80;57.60
971;DHT22;28939;45.540;-122.632;2022-09-09T02:02:28;23.70;57.90
971;DHT22;28939;45.540;-122.632;2022-09-09T02:05:11;23.70;57.90
971;DHT22;28939;45.540;-122.632;2022-09-09T02:07:46;23.60;58.50
971;DHT22;28939;45.540;-122.632;2022-09-09T02:10:20;23.50;58.60
971;DHT22;28939;45.540;-122.632;2022-09-09T02:13:00;23.40;58.60
971;DHT22;28939;45.540;-122.632;2022-09-09T02:15:35;23.40;58.80
971;DHT22;28939;45.540;-122.632;2022-09-09T02:18:09;23.30;58.70
971;DHT22;28939;45.540;-122.632;2022-09-09T02:20:41;23.30;59.20
971;DHT22;28939;45.540;-122.632;2022-09-09T02:23:15;23.20;59.50
971;DHT22;28939;45.540;-122.632;2022-09-09T02:25:47;23.10;60.10
971;DHT22;28939;45.540;-122.632;2022-09-09T02:28:24;22.90;60.00
971;DHT22;28939;45.540;-122.632;2022-09-09T02:30:56;22.90;60.20
971;DHT22;28939;45.540;-122.632;2022-09-09T02:33:28;22.80;60.90
971;DHT22;28939;45.540;-122.632;2022-09-09T02:36:02;22.70;60.80
971;DHT22;28939;45.540;-122.632;2022-09-09T02:38:37;22.60;60.50
971;DHT22;28939;45.540;-122.632;2022-09-09T02:41:11;22.50;60.80
971;DHT22;28939;45.540;-122.632;2022-09-09T02:43:43;22.40;61.10
971;DHT22;28939;45.540;-122.632;2022-09-09T02:46:26;22.30;61.40
971;DHT22;28939;45.540;-122.632;2022-09-09T02:49:01;22.30;61.30
971;DHT22;28939;45.540;-122.632;2022-09-09T02:51:40;22.20;61.50
971;DHT22;28939;45.540;-122.632;2022-09-09T02:54:20;22.10;61.80
971;DHT22;28939;45.540;-122.632;2022-09-09T02:56:54;22.00;61.40
971;DHT22;28939;45.540;-122.632;2022-09-09T02:59:27;22.00;61.60
971;DHT22;28939;45.540;-122.632;2022-09-09T03:01:57;22.00;61.60
971;DHT22;28939;45.540;-122.632;2022-09-09T03:04:28;22.00;61.30
971;DHT22;28939;45.540;-122.632;2022-09-09T03:07:00;21.90;61.80
971;DHT22;28939;45.540;-122.632;2022-09-09T03:09:32;21.70;61.60
971;DHT22;28939;45.540;-122.632;2022-09-09T03:12:03;21.70;61.90
971;DHT22;28939;45.540;-122.632;2022-09-09T03:14:36;21.70;61.30
971;DHT22;28939;45.540;-122.632;2022-09-09T03:17:07;21.70;61.60
971;DHT22;28939;45.540;-122.632;2022-09-09T03:19:37;21.60;61.70
971;DHT22;28939;45.540;-122.632;2022-09-09T03:22:10;21.60;61.40
971;DHT22;28939;45.540;-122.632;2022-09-09T03:24:42;21.60;61.60
971;DHT22;28939;45.540;-122.632;2022-09-09T03:27:13;21.50;61.30
971;DHT22;28939;45.540;-122.632;2022-09-09T03:29:45;21.40;62.00
971;DHT22;28939;45.540;-122.632;2022-09-09T03:32:18;21.30;62.10
971;DHT22;28939;45.540;-122.632;2022-09-09T03:34:52;21.30;61.90
971;DHT22;28939;45.540;-122.632;2022-09-09T03:37:22;21.20;62.50
971;DHT22;28939;45.540;-122.632;2022-09-09T03:39:53;21.10;62.40
971;DHT22;28939;45.540;-122.632;2022-09-09T03:42:24;21.00;62.90
971;DHT22;28939;45.540;-122.632;2022-09-09T03:44:57;20.90;63.00
971;DHT22;28939;45.540;-122.632;2022-09-09T03:47:28;20.80;62.90
971;DHT22;28939;45.540;-122.632;2022-09-09T03:49:58;20.70;63.30
971;DHT22;28939;45.540;-122.632;2022-09-09T03:52:29;20.60;63.60
971;DHT22;28939;45.540;-122.632;2022-09-09T03:55:00;20.50;64.40
971;DHT22;28939;45.540;-122.632;2022-09-09T03:57:30;20.40;64.50
971;DHT22;28939;45.540;-122.632;2022-09-09T04:00:07;20.50;63.20
971;DHT22;28939;45.540;-122.632;2022-09-09T04:02:38;20.50;63.40
971;DHT22;28939;45.540;-122.632;2022-09-09T04:05:09;20.50;63.20
971;DHT22;28939;45.540;-122.632;2022-09-09T04:07:40;20.40;64.20
971;DHT22;28939;45.540;-122.632;2022-09-09T04:10:11;20.30;63.70
971;DHT22;28939;45.540;-122.632;2022-09-09T04:12:44;20.30;64.40
971;DHT22;28939;45.540;-122.632;2022-09-09T04:15:18;20.20;64.40
971;DHT22;28939;45.540;-122.632;2022-09-09T04:17:48;20.10;64.70
971;DHT22;28939;45.540;-122.632;2022-09-09T04:20:19;20.00;65.30
971;DHT22;28939;45.540;-122.632;2022-09-09T04:22:50;19.90;66.00
971;DHT22;28939;45.540;-122.632;2022-09-09T04:25:21;19.80;65.60
971;DHT22;28939;45.540;-122.632;2022-09-09T04:27:54;19.70;66.30
971;DHT22;28939;45.540;-122.632;2022-09-09T04:30:26;19.70;66.50
971;DHT22;28939;45.540;-122.632;2022-09-09T04:32:57;19.70;66.20
971;DHT22;28939;45.540;-122.632;2022-09-09T04:35:28;19.70;66.00
971;DHT22;28939;45.540;-122.632;2022-09-09T04:37:59;19.70;65.70
971;DHT22;28939;45.540;-122.632;2022-09-09T04:40:31;19.70;65.00
971;DHT22;28939;45.540;-122.632;2022-09-09T04:43:02;19.70;65.30
971;DHT22;28939;45.540;-122.632;2022-09-09T04:45:38;19.60;65.00
971;DHT22;28939;45.540;-122.632;2022-09-09T04:48:10;19.60;65.60
971;DHT22;28939;45.540;-122.632;2022-09-09T04:50:41;19.60;65.40
971;DHT22;28939;45.540;-122.632;2022-09-09T04:53:12;19.50;65.70
971;DHT22;28939;45.540;-122.632;2022-09-09T04:55:42;19.40;66.20
971;DHT22;28939;45.540;-122.632;2022-09-09T04:58:15;19.40;65.90
971;DHT22;28939;45.540;-122.632;2022-09-09T05:00:48;19.30;66.00
971;DHT22;28939;45.540;-122.632;2022-09-09T05:03:19;19.30;65.80
971;DHT22;28939;45.540;-122.632;2022-09-09T05:05:50;19.30;65.10
971;DHT22;28939;45.540;-122.632;2022-09-09T05:08:21;19.30;65.20
971;DHT22;28939;45.540;-122.632;2022-09-09T05:10:52;19.20;65.30
971;DHT22;28939;45.540;-122.632;2022-09-09T05:13:23;19.30;64.50
971;DHT22;28939;45.540;-122.632;2022-09-09T05:15:56;19.20;64.70
971;DHT22;28939;45.540;-122.632;2022-09-09T05:18:27;19.30;63.50
971;DHT22;28939;45.540;-122.632;2022-09-09T05:20:59;19.30;63.90
971;DHT22;28939;45.540;-122.632;2022-09-09T05:23:30;19.10;64.10
971;DHT22;28939;45.540;-122.632;2022-09-09T05:26:02;19.10;63.70
971;DHT22;28939;45.540;-122.632;2022-09-09T05:28:35;19.10;63.90
971;DHT22;28939;45.540;-122.632;2022-09-09T05:31:08;19.10;63.50
971;DHT22;28939;45.540;-122.632;2022-09-09T05:33:42;19.00;63.50
971;DHT22;28939;45.540;-122.632;2022-09-09T05:36:15;19.10;63.40
971;DHT22;28939;45.540;-122.632;2022-09-09T05:38:47;19.00;63.50
971;DHT22;28939;45.540;-122.632;2022-09-09T05:41:17;19.00;63.40
971;DHT22;28939;45.540;-122.632;2022-09-09T05:43:48;18.90;63.40
971;DHT22;28939;45.540;-122.632;2022-09-09T05:46:22;18.90;64.00
971;DHT22;28939;45.540;-122.632;2022-09-09T05:48:54;18.90;63.70
971;DHT22;28939;45.540;-122.632;2022-09-09T05:51:25;18.90;63.90
971;DHT22;28939;45.540;-122.632;2022-09-09T05:53:57;18.80;64.70
971;DHT22;28939;45.540;-122.632;2022-09-09T05:56:30;18.70;64.60
971;DHT22;28939;45.540;-122.632;2022-09-09T05:59:01;18.60;65.30
971;DHT22;28939;45.540;-122.632;2022-09-09T06:01:36;18.60;65.20
971;DHT22;28939;45.540;-122.632;2022-09-09T06:04:09;18.60;66.00
971;DHT22;28939;45.540;-122.632;2022-09-09T06:06:39;18.50;66.10
971;DHT22;28939;45.540;-122.632;2022-09-09T06:09:10;18.50;66.50
971;DHT22;28939;45.540;-122.632;2022-09-09T06:11:42;18.30;67.40
971;DHT22;28939;45.540;-122.632;2022-09-09T06:14:14;18.30;67.90
971;DHT22;28939;45.540;-122.632;2022-09-09T06:16:48;18.20;68.50
971;DHT22;28939;45.540;-122.632;2022-09-09T06:19:18;18.30;67.90
971;DHT22;28939;45.540;-122.632;2022-09-09T06:21:49;18.40;67.60
971;DHT22;28939;45.540;-122.632;2022-09-09T06:24:20;18.40;67.60
971;DHT22;28939;45.540;-122.632;2022-09-09T06:26:51;18.40;68.40
971;DHT22;28939;45.540;-122.632;2022-09-09T06:29:22;18.30;68.60
971;DHT22;28939;45.540;-122.632;2022-09-09T06:31:54;18.30;69.50
971;DHT22;28939;45.540;-122.632;2022-09-09T06:34:26;18.30;69.20
971;DHT22;28939;45.540;-122.632;2022-09-09T06:36:57;18.20;69.90
971;DHT22;28939;45.540;-122.632;2022-09-09T06:39:28;18.20;70.20
971;DHT22;28939;45.540;-122.632;2022-09-09T06:41:59;18.10;70.70
971;DHT22;28939;45.540;-122.632;2022-09-09T06:44:30;18.10;70.90
971;DHT22;28939;45.540;-122.632;2022-09-09T06:47:04;18.20;70.80
971;DHT22;28939;45.540;-122.632;2022-09-09T06:49:35;18.20;71.10
971;DHT22;28939;45.540;-122.632;2022-09-09T06:52:05;18.10;71.40
971;DHT22;28939;45.540;-122.632;2022-09-09T06:54:37;18.00;72.40
971;DHT22;28939;45.540;-122.632;2022-09-09T06:57:08;17.90;73.10
971;DHT22;28939;45.540;-122.632;2022-09-09T06:59:59;17.80;73.00
971;DHT22;28939;45.540;-122.632;2022-09-09T07:02:31;17.80;73.70
971;DHT22;28939;45.540;-122.632;2022-09-09T07:05:08;17.70;74.00
971;DHT22;28939;45.540;-122.632;2022-09-09T07:07:39;17.70;74.10
971;DHT22;28939;45.540;-122.632;2022-09-09T07:10:10;17.60;75.00
971;DHT22;28939;45.540;-122.632;2022-09-09T07:12:41;17.60;75.20
971;DHT22;28939;45.540;-122.632;2022-09-09T07:15:11;17.50;76.40
971;DHT22;28939;45.540;-122.632;2022-09-09T07:17:44;17.40;77.30
971;DHT22;28939;45.540;-122.632;2022-09-09T07:20:15;17.40;77.20
971;DHT22;28939;45.540;-122.632;2022-09-09T07:22:45;17.40;77.10
971;DHT22;28939;45.540;-122.632;2022-09-09T07:25:16;17.30;77.70
971;DHT22;28939;45.540;-122.632;2022-09-09T07:27:47;17.30;78.20
971;DHT22;28939;45.540;-122.632;2022-09-09T07:30:18;17.20;78.80
971;DHT22;28939;45.540;-122.632;2022-09-09T07:32:56;17.20;80.00
971;DHT22;28939;45.540;-122.632;2022-09-09T07:35:27;17.10;79.60
971;DHT22;28939;45.540;-122.632;2022-09-09T07:38:00;17.10;80.00
971;DHT22;28939;45.540;-122.632;2022-09-09T07:40:31;17.10;80.30
971;DHT22;28939;45.540;-122.632;2022-09-09T07:43:02;17.00;81.20
971;DHT22;28939;45.540;-122.632;2022-09-09T07:45:34;16.90;81.50
971;DHT22;28939;45.540;-122.632;2022-09-09T07:48:08;16.80;81.80
971;DHT22;28939;45.540;-122.632;2022-09-09T07:50:39;16.80;82.20
971;DHT22;28939;45.540;-122.632;2022-09-09T07:53:10;16.70;83.10
971;DHT22;28939;45.540;-122.632;2022-09-09T07:55:41;16.70;83.20
971;DHT22;28939;45.540;-122.632;2022-09-09T07:58:11;16.60;83.80
971;DHT22;28939;45.540;-122.632;2022-09-09T08:00:42;16.60;84.40
971;DHT22;28939;45.540;-122.632;2022-09-09T08:03:15;16.60;84.60
971;DHT22;28939;45.540;-122.632;2022-09-09T08:05:45;16.50;85.30
971;DHT22;28939;45.540;-122.632;2022-09-09T08:08:16;16.60;85.20
971;DHT22;28939;45.540;-122.632;2022-09-09T08:10:47;16.50;86.00
971;DHT22;28939;45.540;-122.632;2022-09-09T08:13:17;16.50;86.20
971;DHT22;28939;45.540;-122.632;2022-09-09T08:15:49;16.40;86.70
971;DHT22;28939;45.540;-122.632;2022-09-09T08:18:22;16.40;87.10
971;DHT22;28939;45.540;-122.632;2022-09-09T08:20:52;16.40;87.60
971;DHT22;28939;45.540;-122.632;2022-09-09T08:23:23;16.40;88.00
971;DHT22;28939;45.540;-122.632;2022-09-09T08:26:02;16.40;88.30
971;DHT22;28939;45.540;-122.632;2022-09-09T08:28:33;16.30;88.70
971;DHT22;28939;45.540;-122.632;2022-09-09T08:31:08;16.30;89.60
971;DHT22;28939;45.540;-122.632;2022-09-09T08:33:41;16.30;90.00
971;DHT22;28939;45.540;-122.632;2022-09-09T08:36:15;16.30;90.20
971;DHT22;28939;45.540;-122.632;2022-09-09T08:38:48;16.30;90.80
971;DHT22;28939;45.540;-122.632;2022-09-09T08:41:41;16.20;91.10
971;DHT22;28939;45.540;-122.632;2022-09-09T08:44:19;16.10;91.50
971;DHT22;28939;45.540;-122.632;2022-09-09T08:46:58;16.00;91.90
971;DHT22;28939;45.540;-122.632;2022-09-09T08:52:31;15.90;92.30
971;DHT22;28939;45.540;-122.632;2022-09-09T08:55:19;16.00;92.60
971;DHT22;28939;45.540;-122.632;2022-09-09T08:57:53;16.10;92.60
971;DHT22;28939;45.540;-122.632;2022-09-09T09:00:33;16.10;92.70
971;DHT22;28939;45.540;-122.632;2022-09-09T09:03:13;16.10;92.90
971;DHT22;28939;45.540;-122.632;2022-09-09T09:05:59;16.10;93.30
971;DHT22;28939;45.540;-122.632;2022-09-09T09:08:38;16.00;93.80
971;DHT22;28939;45.540;-122.632;2022-09-09T09:11:11;16.00;93.90
971;DHT22;28939;45.540;-122.632;2022-09-09T09:13:44;16.00;94.30
971;DHT22;28939;45.540;-122.632;2022-09-09T09:16:23;15.90;94.70
971;DHT22;28939;45.540;-122.632;2022-09-09T09:18:57;15.90;95.30
971;DHT22;28939;45.540;-122.632;2022-09-09T09:21:36;15.90;95.60
971;DHT22;28939;45.540;-122.632;2022-09-09T09:24:16;15.80;95.80
971;DHT22;28939;45.540;-122.632;2022-09-09T09:26:49;15.90;96.00
971;DHT22;28939;45.540;-122.632;2022-09-09T09:29:23;15.70;96.70
971;DHT22;28939;45.540;-122.632;2022-09-09T09:31:58;15.60;97.20
971;DHT22;28939;45.540;-122.632;2022-09-09T09:34:29;15.60;97.80
971;DHT22;28939;45.540;-122.632;2022-09-09T09:37:02;15.60;98.20
971;DHT22;28939;45.540;-122.632;2022-09-09T09:39:41;15.60;98.40
971;DHT22;28939;45.540;-122.632;2022-09-09T09:42:32;15.60;98.80
971;DHT22;28939;45.540;-122.632;2022-09-09T09:45:12;15.60;99.40
971;DHT22;28939;45.540;-122.632;2022-09-09T09:47:57;15.50;99.70
971;DHT22;28939;45.540;-122.632;2022-09-09T09:50:34;15.50;99.90
971;DHT22;28939;45.540;-122.632;2022-09-09T09:53:17;15.50;99.90
971;DHT22;28939;45.540;-122.632;2022-09-09T09:55:53;15.40;99.90
971;DHT22;28939;45.540;-122.632;2022-09-09T09:58:25;15.30;99.90
971;DHT22;28939;45.540;-122.632;2022-09-09T10:00:58;15.30;99.90
971;DHT22;28939;45.540;-122.632;2022-09-09T10:03:30;15.20;99.90
971;DHT22;28939;45.540;-122.632;2022-09-09T10:06:06;15.10;99.90
971;DHT22;28939;45.540;-122.632;2022-09-09T10:08:45;15.10;99.90
971;DHT22;28939;45.540;-122.632;2022-09-09T10:11:26;15.00;99.90
971;DHT22;28939;45.540;-122.632;2022-09-09T10:14:04;14.90;99.90
971;DHT22;28939;45.540;-122.632;2022-09-09T10:16:50;14.90;99.90
971;DHT22;28939;45.540;-122.632;2022-09-09T10:19:30;14.80;99.90
971;DHT22;28939;45.540;-122.632;2022-09-09T10:22:25;14.70;99.90
971;DHT22;28939;45.540;-122.632;2022-09-09T10:25:19;14.60;99.90
971;DHT22;28939;45.540;-122.632;2022-09-09T10:28:06;14.60;99.90
971;DHT22;28939;45.540;-122.632;2022-09-09T10:30:47;14.60;99.90
971;DHT22;28939;45.540;-122.632;2022-09-09T10:33:28;14.60;99.90
971;DHT22;28939;45.540;-122.632;2022-09-09T10:36:11;14.50;99.90
971;DHT22;28939;45.540;-122.632;2022-09-09T10:38:44;14.50;99.90
971;DHT22;28939;45.540;-122.632;2022-09-09T10:41:31;14.50;99.90
971;DHT22;28939;45.540;-122.632;2022-09-09T10:44:17;14.40;99.90
971;DHT22;28939;45.540;-122.632;2022-09-09T10:46:58;14.40;99.90
971;DHT22;28939;45.540;-122.632;2022-09-09T10:49:56;14.30;99.90
971;DHT22;28939;45.540;-122.632;2022-09-09T10:52:35;14.30;99.90
971;DHT22;28939;45.540;-122.632;2022-09-09T10:55:14;14.30;99.90
971;DHT22;28939;45.540;-122.632;2022-09-09T10:57:49;14.30;99.90
971;DHT22;28939;45.540;-122.632;2022-09-09T11:00:22;14.20;99.90
971;DHT22;28939;45.540;-122.632;2022-09-09T11:02:56;14.20;99.90
971;DHT22;28939;45.540;-122.632;2022-09-09T11:05:29;14.10;99.90
971;DHT22;28939;45.540;-122.632;2022-09-09T11:08:05;14.00;99.90
971;DHT22;28939;45.540;-122.632;2022-09-09T11:10:43;14.00;99.90
971;DHT22;28939;45.540;-122.632;2022-09-09T11:13:20;14.00;99.90
971;DHT22;28939;45.540;-122.632;2022-09-09T11:15:58;14.00;99.90
971;DHT22;28939;45.540;-122.632;2022-09-09T11:18:32;13.90;99.90
971;DHT22;28939;45.540;-122.632;2022-09-09T11:21:12;13.90;99.90
971;DHT22;28939;45.540;-122.632;2022-09-09T11:23:49;13.80;99.90
971;DHT22;28939;45.540;-122.632;2022-09-09T11:26:30;13.70;99.90
971;DHT22;28939;45.540;-122.632;2022-09-09T11:29:24;13.60;99.90
971;DHT22;28939;45.540;-122.632;2022-09-09T11:32:07;13.60;99.90
971;DHT22;28939;45.540;-122.632;2022-09-09T11:34:53;13.60;99.90
971;DHT22;28939;45.540;-122.632;2022-09-09T11:37:49;13.50;99.90
971;DHT22;28939;45.540;-122.632;2022-09-09T11:40:24;13.40;99.90
971;DHT22;28939;45.540;-122.632;2022-09-09T11:43:04;13.40;99.90
971;DHT22;28939;45.540;-122.632;2022-09-09T11:45:37;13.40;99.90
971;DHT22;28939;45.540;-122.632;2022-09-09T11:48:24;13.30;99.90
971;DHT22;28939;45.540;-122.632;2022-09-09T11:51:01;13.20;99.90
971;DHT22;28939;45.540;-122.632;2022-09-09T11:53:34;13.10;99.90
971;DHT22;28939;45.540;-122.632;2022-09-09T11:56:08;13.00;99.90
971;DHT22;28939;45.540;-122.632;2022-09-09T11:58:42;13.00;99.90
971;DHT22;28939;45.540;-122.632;2022-09-09T12:01:27;13.00;99.90
971;DHT22;28939;45.540;-122.632;2022-09-09T12:07:00;13.00;99.90
971;DHT22;28939;45.540;-122.632;2022-09-09T12:09:47;13.00;99.90
971;DHT22;28939;45.540;-122.632;2022-09-09T12:12:24;12.90;99.90
971;DHT22;28939;45.540;-122.632;2022-09-09T12:15:00;12.90;99.90
971;DHT22;28939;45.540;-122.632;2022-09-09T12:17:41;12.80;99.90
971;DHT22;28939;45.540;-122.632;2022-09-09T12:20:14;12.80;99.90
971;DHT22;28939;45.540;-122.632;2022-09-09T12:23:11;12.90;99.90
971;DHT22;28939;45.540;-122.632;2022-09-09T12:26:04;12.80;99.90
971;DHT22;28939;45.540;-122.632;2022-09-09T12:28:56;12.80;99.90
971;DHT22;28939;45.540;-122.632;2022-09-09T12:31:34;12.80;99.90
971;DHT22;28939;45.540;-122.632;2022-09-09T12:34:15;12.70;99.90
971;DHT22;28939;45.540;-122.632;2022-09-09T12:36:54;12.70;99.90
971;DHT22;28939;45.540;-122.632;2022-09-09T12:39:31;12.70;99.90
971;DHT22;28939;45.540;-122.632;2022-09-09T12:42:04;12.70;99.90
971;DHT22;28939;45.540;-122.632;2022-09-09T12:44:36;12.60;99.90
971;DHT22;28939;45.540;-122.632;2022-09-09T12:47:06;12.60;99.90
971;DHT22;28939;45.540;-122.632;2022-09-09T12:49:40;12.60;99.90
971;DHT22;28939;45.540;-122.632;2022-09-09T12:52:17;12.60;99.90
971;DHT22;28939;45.540;-122.632;2022-09-09T12:54:49;12.60;99.90
971;DHT22;28939;45.540;-122.632;2022-09-09T12:57:24;12.60;99.90
971;DHT22;28939;45.540;-122.632;2022-09-09T13:00:07;12.60;99.90
971;DHT22;28939;45.540;-122.632;2022-09-09T13:02:50;12.60;99.90
971;DHT22;28939;45.540;-122.632;2022-09-09T13:05:24;12.60;99.90
971;DHT22;28939;45.540;-122.632;2022-09-09T13:08:01;12.60;99.90
971;DHT22;28939;45.540;-122.632;2022-09-09T13:10:34;12.60;99.90
971;DHT22;28939;45.540;-122.632;2022-09-09T13:13:22;12.60;99.90
971;DHT22;28939;45.540;-122.632;2022-09-09T13:15:54;12.60;99.90
971;DHT22;28939;45.540;-122.632;2022-09-09T13:18:28;12.40;99.90
971;DHT22;28939;45.540;-122.632;2022-09-09T13:21:04;12.40;99.90
971;DHT22;28939;45.540;-122.632;2022-09-09T13:23:36;12.40;99.90
971;DHT22;28939;45.540;-122.632;2022-09-09T13:26:21;12.40;99.90
971;DHT22;28939;45.540;-122.632;2022-09-09T13:28:52;12.40;99.90
971;DHT22;28939;45.540;-122.632;2022-09-09T13:31:28;12.40;99.90
971;DHT22;28939;45.540;-122.632;2022-09-09T13:33:58;12.40;99.90
971;DHT22;28939;45.540;-122.632;2022-09-09T13:36:32;12.30;99.90
971;DHT22;28939;45.540;-122.632;2022-09-09T13:39:04;12.40;99.90
971;DHT22;28939;45.540;-122.632;2022-09-09T13:41:36;12.30;99.90
971;DHT22;28939;45.540;-122.632;2022-09-09T13:44:18;12.30;99.90
971;DHT22;28939;45.540;-122.632;2022-09-09T13:47:02;12.30;99.90
971;DHT22;28939;45.540;-122.632;2022-09-09T13:49:37;12.30;99.90
971;DHT22;28939;45.540;-122.632;2022-09-09T13:52:14;12.30;99.90
971;DHT22;28939;45.540;-122.632;2022-09-09T13:54:48;12.30;99.90
971;DHT22;28939;45.540;-122.632;2022-09-09T13:57:20;12.30;99.90
971;DHT22;28939;45.540;-122.632;2022-09-09T13:59:52;12.30;99.90
971;DHT22;28939;45.540;-122.632;2022-09-09T14:02:38;12.30;99.90
971;DHT22;28939;45.540;-122.632;2022-09-09T14:05:09;12.30;99.90
971;DHT22;28939;45.540;-122.632;2022-09-09T14:07:41;12.30;99.90
971;DHT22;28939;45.540;-122.632;2022-09-09T14:10:17;12.30;99.90
971;DHT22;28939;45.540;-122.632;2022-09-09T14:12:47;12.30;99.90
971;DHT22;28939;45.540;-122.632;2022-09-09T14:15:18;12.40;99.90
971;DHT22;28939;45.540;-122.632;2022-09-09T14:17:50;12.60;99.90
971;DHT22;28939;45.540;-122.632;2022-09-09T14:20:21;12.70;99.90
971;DHT22;28939;45.540;-122.632;2022-09-09T14:22:53;12.80;99.90
971;DHT22;28939;45.540;-122.632;2022-09-09T14:25:30;12.80;99.90
971;DHT22;28939;45.540;-122.632;2022-09-09T14:28:02;12.90;99.90
971;DHT22;28939;45.540;-122.632;2022-09-09T14:30:32;12.90;99.90
971;DHT22;28939;45.540;-122.632;2022-09-09T14:33:03;12.90;99.90
971;DHT22;28939;45.540;-122.632;2022-09-09T14:35:34;13.00;99.90
971;DHT22;28939;45.540;-122.632;2022-09-09T14:38:08;13.00;99.90
971;DHT22;28939;45.540;-122.632;2022-09-09T14:40:45;13.10;99.90
971;DHT22;28939;45.540;-122.632;2022-09-09T14:43:16;13.20;99.90
971;DHT22;28939;45.540;-122.632;2022-09-09T14:45:47;13.20;99.90
971;DHT22;28939;45.540;-122.632;2022-09-09T14:48:19;13.30;99.90
971;DHT22;28939;45.540;-122.632;2022-09-09T14:50:50;13.40;99.90
971;DHT22;28939;45.540;-122.632;2022-09-09T14:53:22;13.50;99.90
971;DHT22;28939;45.540;-122.632;2022-09-09T14:55:53;13.70;99.90
971;DHT22;28939;45.540;-122.632;2022-09-09T14:58:33;13.80;99.90
971;DHT22;28939;45.540;-122.632;2022-09-09T15:01:04;13.90;99.90
971;DHT22;28939;45.540;-122.632;2022-09-09T15:03:39;14.10;99.90
971;DHT22;28939;45.540;-122.632;2022-09-09T15:06:11;14.20;99.90
971;DHT22;28939;45.540;-122.632;2022-09-09T15:08:45;14.30;99.90
971;DHT22;28939;45.540;-122.632;2022-09-09T15:11:16;14.40;99.90
971;DHT22;28939;45.540;-122.632;2022-09-09T15:13:50;14.50;99.90
971;DHT22;28939;45.540;-122.632;2022-09-09T15:16:23;14.70;99.90
971;DHT22;28939;45.540;-122.632;2022-09-09T15:18:56;14.80;99.90
971;DHT22;28939;45.540;-122.632;2022-09-09T15:21:28;15.00;99.90
971;DHT22;28939;45.540;-122.632;2022-09-09T15:24:01;15.10;99.90
971;DHT22;28939;45.540;-122.632;2022-09-09T15:26:32;15.40;99.90
971;DHT22;28939;45.540;-122.632;2022-09-09T15:29:04;15.90;99.90
971;DHT22;28939;45.540;-122.632;2022-09-09T15:31:35;16.30;99.90
971;DHT22;28939;45.540;-122.632;2022-09-09T15:34:07;17.00;99.90
971;DHT22;28939;45.540;-122.632;2022-09-09T15:36:39;18.10;99.90
971;DHT22;28939;45.540;-122.632;2022-09-09T15:39:14;20.00;99.90
971;DHT22;28939;45.540;-122.632;2022-09-09T15:41:45;22.10;95.40
971;DHT22;28939;45.540;-122.632;2022-09-09T15:44:16;24.10;90.70
971;DHT22;28939;45.540;-122.632;2022-09-09T15:46:50;25.30;83.90
971;DHT22;28939;45.540;-122.632;2022-09-09T15:49:23;26.10;78.90
971;DHT22;28939;45.540;-122.632;2022-09-09T15:51:55;27.40;71.70
971;DHT22;28939;45.540;-122.632;2022-09-09T15:54:31;28.40;66.60
971;DHT22;28939;45.540;-122.632;2022-09-09T15:57:05;28.80;64.10
971;DHT22;28939;45.540;-122.632;2022-09-09T15:59:36;29.00;63.20
971;DHT22;28939;45.540;-122.632;2022-09-09T16:02:07;29.00;60.20
971;DHT22;28939;45.540;-122.632;2022-09-09T16:04:38;28.90;60.80
971;DHT22;28939;45.540;-122.632;2022-09-09T16:07:08;29.80;57.40
971;DHT22;28939;45.540;-122.632;2022-09-09T16:09:41;30.20;56.20